• Join FlightAware (Why Join?)
  • Login
  • US Flag 
11:03PM EDT


 

Airport Tracker/Info


-or-


 

Live Flight TrackerFlight Track Log ✈ SWA896 ✈ 17-Apr-2013 ✈ KBUF - KLAS

Flight Track Log - Related Links

Times and Time Zones

All times are in EDT time to prevent confusion due to time zone crossing. See the SWA896 flight status page for this flight to view local times or setup timezone preferences in your user account.

Time Position Orientation Groundspeed Altitude Reporting Facility
EDT Latitude Longitude Course Direction KTS MPH feet Rate Location/Type
08:09AM 42.9167 -78.7500 224° Southwest 178 205 1,900  Level Buffalo TRACON
08:10AM 42.8667 -78.8167 224° Southwest 233 268 4,000 2,040 Climbing Buffalo TRACON
08:11AM 42.8308 -78.8564 219° Southwest 273 314 5,800 2,820 Climbing Cleveland Center
08:12AM 42.7478 -78.8869 195° South 293 337 9,100 2,400 Climbing Cleveland Center
08:13AM 42.6817 -78.9142 197° South 293 337 10,700 2,040 Climbing Cleveland Center
08:14AM 42.5906 -78.9531 197° South 312 359 13,200 2,460 Climbing Cleveland Center
08:15AM 42.5142 -79.0200 213° Southwest 328 377 15,700 1,920 Climbing Cleveland Center
08:16AM 42.4194 -79.1008 212° Southwest 348 400 17,100 1,380 Climbing Cleveland Center
08:17AM 42.3244 -79.1761 210° Southwest 383 441 18,500 1,500 Climbing Cleveland Center
08:18AM 42.2381 -79.2706 219° Southwest 399 459 20,200 1,620 Climbing Cleveland Center
08:19AM 42.2356 -79.4164 269° West 353 406 21,800 1,560 Climbing Cleveland Center
08:20AM 42.2328 -79.5653 269° West 367 422 23,400 1,560 Climbing Cleveland Center
08:21AM 42.2319 -79.7167 270° West 398 458 25,000 1,740 Climbing Cleveland Center
08:22AM 42.2308 -79.8542 269° West 407 468 26,900 1,740 Climbing Cleveland Center
08:23AM 42.2253 -80.0000 267° West 402 463 28,500 1,500 Climbing Cleveland Center
08:24AM 42.2239 -80.1458 269° West 396 456 30,000 1,380 Climbing Cleveland Center
08:25AM 42.2222 -80.2889 269° West 389 448 31,300 960 Climbing Cleveland Center
08:26AM 42.2183 -80.4289 268° West 383 441 32,000 300 Climbing Cleveland Center
08:27AM 42.2122 -80.5747 267° West 383 441 32,000  Level Cleveland Center
08:28AM 42.2100 -80.7178 269° West 383 441 32,000 360 Level Cleveland Center
08:29AM 42.2056 -80.8636 268° West 383 441 32,800 480 Climbing Cleveland Center
08:30AM 42.2008 -81.0206 268° West 383 441 33,000 540 Climbing Cleveland Center
08:31AM 42.1961 -81.1633 267° West 383 441 33,900 480 Climbing Cleveland Center
08:32AM 42.1911 -81.3033 267° West 383 441 34,000  Climbing Cleveland Center
08:33AM 42.1861 -81.4489 267° West 383 441 34,000  Level Cleveland Center
08:34AM 42.1806 -81.5919 267° West 383 441 34,000  Level Cleveland Center
08:35AM 42.1772 -81.7347 268° West 383 441 34,000  Level Cleveland Center
08:36AM 42.1714 -81.8775 267° West 383 441 34,000  Level Cleveland Center
08:37AM 42.1656 -82.0203 267° West 383 441 34,000  Level Cleveland Center
08:38AM 42.1597 -82.1631 267° West 388 447 34,000  Level Cleveland Center
08:39AM 42.1533 -82.3086 267° West 388 447 34,000  Level Cleveland Center
08:40AM 42.1469 -82.4539 267° West 383 441 34,000  Level Cleveland Center
08:41AM 42.1381 -82.5992 265° West 383 441 34,000  Level Cleveland Center
08:42AM 42.1356 -82.7419 269° West 388 447 34,000  Level Cleveland Center
08:43AM 42.1267 -82.8844 265° West 383 441 34,000  Level Cleveland Center
08:44AM 42.1217 -83.0272 267° West 383 441 34,000  Level Cleveland Center
08:45AM 42.1142 -83.1667 266° West 383 441 34,000  Level Cleveland Center
08:46AM 42.1092 -83.2981 267° West 392 451 34,000  Level Cleveland Center
08:47AM 42.1036 -83.4406 267° West 383 441 34,000  Level Cleveland Center
08:48AM 42.0731 -83.5819 254° West 388 447 34,000  Level Cleveland Center
08:49AM 42.0422 -83.7203 253° West 393 452 34,000  Level Cleveland Center
08:50AM 42.0194 -83.8592 258° West 388 447 34,000  Level Cleveland Center
08:51AM 42.0111 -84.0039 266° West 388 447 34,000  Level Cleveland Center
08:52AM 42.0047 -84.1461 267° West 388 447 34,000  Level Cleveland Center
08:53AM 41.9936 -84.4083 267° West 387 445 34,000  Level Chicago Center
08:54AM 41.9844 -84.5539 265° West 391 450 34,000  Level Chicago Center
08:55AM 41.9767 -84.6978 266° West 388 447 34,000  Level Chicago Center
08:56AM 41.9683 -84.8414 266° West 386 444 34,000  Level Chicago Center
08:57AM 41.9603 -84.9858 266° West 389 448 34,000  Level Chicago Center
08:58AM 41.9508 -85.1289 265° West 388 447 34,000  Level Chicago Center
08:59AM 41.9400 -85.3019 265° West 392 451 34,000  Level Chicago Center
09:01AM 41.9300 -85.4461 265° West 393 452 34,000  Level Chicago Center
09:02AM 41.8914 -85.5814 249° West 393 452 34,000  Level Chicago Center
09:03AM 41.8442 -85.7142 245° Southwest 400 460 34,000  Level Chicago Center
09:04AM 41.7978 -85.8475 245° Southwest 399 459 34,000  Level Chicago Center
09:05AM 41.7408 -86.0078 245° Southwest 398 458 34,000  Level Chicago Center
09:06AM 41.6947 -86.1403 245° Southwest 397 457 34,000  Level Chicago Center
09:07AM 41.6475 -86.2736 245° Southwest 398 458 34,000  Level Chicago Center
09:08AM 41.5989 -86.4058 244° Southwest 397 457 34,000  Level Chicago Center
09:09AM 41.5522 -86.5383 245° Southwest 397 457 34,000  Level Chicago Center
09:10AM 41.5028 -86.6717 244° Southwest 400 460 34,000  Level Chicago Center
09:11AM 41.4478 -86.8256 245° Southwest 394 453 34,000  Level Chicago Center
09:12AM 41.3994 -86.9592 244° Southwest 398 458 34,000  Level Chicago Center
09:13AM 41.3506 -87.0922 244° Southwest 400 460 34,000  Level Chicago Center
09:14AM 41.3011 -87.2258 244° Southwest 401 461 34,000  Level Chicago Center
09:15AM 41.2519 -87.3583 244° Southwest 400 460 34,000  Level Chicago Center
09:16AM 41.2022 -87.4931 244° Southwest 403 464 34,000  Level Chicago Center
09:17AM 41.1428 -87.6533 244° Southwest 402 463 34,000  Level Chicago Center
09:18AM 41.0919 -87.7875 243° Southwest 404 465 34,000  Level Chicago Center
09:19AM 41.0425 -87.9217 244° Southwest 404 465 34,000  Level Chicago Center
09:20AM 40.9911 -88.0553 243° Southwest 405 466 34,000  Level Chicago Center
09:21AM 40.9408 -88.1892 244° Southwest 406 467 34,000  Level Chicago Center
09:22AM 40.8894 -88.3231 243° Southwest 406 467 34,000  Level Chicago Center
09:23AM 40.8389 -88.4564 243° Southwest 408 470 34,000  Level Chicago Center
09:24AM 40.7767 -88.6167 243° Southwest 409 471 34,000  Level Chicago Center
09:25AM 40.7250 -88.7500 243° Southwest 410 472 34,000  Level Chicago Center
09:26AM 40.6758 -88.8761 243° Southwest 415 478 34,000  Level Chicago Center
09:27AM 40.6231 -89.0103 243° Southwest 412 474 34,000  Level Chicago Center
09:28AM 40.5703 -89.1425 242° Southwest 410 472 34,000  Level Chicago Center
09:29AM 40.5167 -89.2792 243° Southwest 419 482 34,000  Level Chicago Center
09:30AM 40.4531 -89.4392 242° Southwest 414 476 34,000  Level Chicago Center
09:31AM 40.3992 -89.5733 242° Southwest 413 475 34,000  Level Chicago Center
09:32AM 40.3444 -89.7092 242° Southwest 417 480 34,000  Level Chicago Center
09:33AM 40.2911 -89.8442 243° Southwest 415 478 34,000  Level Chicago Center
09:35AM 40.2383 -89.9775 243° Southwest 410 472 34,000  Level Chicago Center
09:36AM 40.1836 -90.1114 242° Southwest 410 472 34,000  Level Chicago Center
09:37AM 40.1289 -90.2472 242° Southwest 418 481 34,000  Level Chicago Center
09:38AM 40.0617 -90.4083 241° Southwest 418 481 34,000  Level Kansas City Center
09:39AM 40.0075 -90.5419 242° Southwest 417 480 34,000  Level Kansas City Center
09:40AM 39.9531 -90.6753 242° Southwest 416 479 34,000  Level Kansas City Center
09:41AM 39.8978 -90.8061 241° Southwest 414 476 34,000  Level Kansas City Center
09:42AM 39.8431 -90.9361 241° Southwest 411 473 34,000  Level Kansas City Center
09:43AM 39.7864 -91.0725 242° Southwest 413 475 34,000  Level Kansas City Center
09:44AM 39.7339 -91.1981 241° Southwest 412 474 34,000  Level Kansas City Center
09:45AM 39.6775 -91.3322 241° Southwest 410 472 34,000  Level Kansas City Center
09:46AM 39.6219 -91.4625 241° Southwest 414 476 34,000  Level Kansas City Center
09:47AM 39.5553 -91.6197 241° Southwest 416 479 34,000  Level Kansas City Center
09:48AM 39.4997 -91.7494 241° Southwest 414 476 34,000  Level Kansas City Center
09:49AM 39.4431 -91.8808 241° Southwest 417 480 34,000  Level Kansas City Center
09:50AM 39.3875 -92.0119 241° Southwest 418 481 34,000  Level Kansas City Center
09:51AM 39.3311 -92.1419 241° Southwest 417 480 34,000  Level Kansas City Center
09:52AM 39.2714 -92.2744 240° Southwest 425 489 34,000  Level Kansas City Center
09:53AM 39.2097 -92.4189 241° Southwest 430 495 34,000  Level Kansas City Center
09:54AM 39.1500 -92.5547 240° Southwest 433 498 34,000  Level Kansas City Center
09:55AM 39.0789 -92.7167 241° Southwest 433 498 34,000  Level Kansas City Center
09:56AM 39.0239 -92.8414 240° Southwest 434 499 34,000  Level Kansas City Center
09:57AM 38.9597 -92.9831 240° Southwest 429 494 34,000  Level Kansas City Center
09:58AM 38.9000 -93.1172 240° Southwest 431 496 34,000  Level Kansas City Center
09:59AM 38.8392 -93.2525 240° Southwest 435 501 34,000  Level Kansas City Center
10:00AM 38.7789 -93.3894 241° Southwest 439 505 34,000  Level Kansas City Center
10:01AM 38.7719 -93.5400 267° West 429 494 34,000  Level Kansas City Center
10:02AM 38.7717 -93.6964 270° West 437 503 34,000  Level Kansas City Center
10:03AM 38.7722 -93.8656 270° West 435 501 34,000  Level Kansas City Center
10:04AM 38.7722 -94.0378 270° West 432 497 34,000  Level Kansas City Center
10:05AM 38.7722 -94.1856 270° West 434 499 34,000  Level Kansas City Center
10:06AM 38.7722 -94.3336 270° West 434 499 34,000  Level Kansas City Center
10:07AM 38.7711 -94.5061 270° West 432 497 34,000  Level Kansas City Center
10:08AM 38.7697 -94.6544 269° West 433 498 34,000  Level Kansas City Center
10:10AM 38.7686 -94.8294 270° West 438 504 34,000  Level Kansas City Center
10:11AM 38.7678 -94.9803 270° West 440 506 34,000  Level Kansas City Center
10:12AM 38.7656 -95.1589 269° West 445 512 34,000  Level Kansas City Center
10:13AM 38.7636 -95.3139 269° West 451 519 34,000  Level Kansas City Center
10:14AM 38.7619 -95.4675 269° West 448 516 34,000  Level Kansas City Center
10:15AM 38.7597 -95.6478 269° West 450 518 34,000  Level Kansas City Center
10:16AM 38.7578 -95.8014 269° West 450 518 34,000  Level Kansas City Center
10:17AM 38.7547 -95.9797 269° West 447 514 34,000  Level Kansas City Center
10:18AM 38.7519 -96.1294 269° West 440 506 34,000  Level Kansas City Center
10:19AM 38.7481 -96.2778 268° West 437 503 34,000  Level Kansas City Center
10:20AM 38.7442 -96.4508 268° West 435 501 34,000 -300 Level Kansas City Center
10:21AM 38.7403 -96.6139 268° West 434 499 33,400 -480 Descending Kansas City Center
10:22AM 38.7367 -96.7672 268° West 433 498 33,000 -240 Descending Kansas City Center
10:23AM 38.7342 -96.9214 269° West 434 499 33,000  Level Kansas City Center
10:24AM 38.7308 -97.0703 268° West 423 487 33,000  Level Kansas City Center
10:25AM 38.7267 -97.2192 268° West 420 483 33,000  Level Kansas City Center
10:26AM 38.7222 -97.3678 268° West 419 482 33,000  Level Kansas City Center
10:27AM 38.7178 -97.5369 268° West 415 478 33,000 -480 Level Kansas City Center
10:28AM 38.7142 -97.6781 268° West 414 476 32,100 -540 Descending Kansas City Center
10:29AM 38.7072 -97.8392 267° West 419 482 32,000 -60 Descending Kansas City Center
10:30AM 38.7019 -97.9858 267° West 416 479 32,000  Level Kansas City Center
10:31AM 38.6978 -98.1319 268° West 413 475 32,000  Level Kansas City Center
10:32AM 38.6922 -98.2764 267° West 410 472 32,000  Level Kansas City Center
10:33AM 38.6869 -98.4217 267° West 410 472 32,000  Level Kansas City Center
10:34AM 38.6814 -98.5947 268° West 408 470 32,000  Level Kansas City Center
10:35AM 38.6744 -98.7375 266° West 405 466 32,000  Level Kansas City Center
10:36AM 38.6694 -98.8808 267° West 405 466 32,000  Level Kansas City Center
10:37AM 38.6628 -99.0228 267° West 402 463 32,000  Level Kansas City Center
10:38AM 38.6569 -99.1661 267° West 404 465 32,000  Level Kansas City Center
10:39AM 38.6500 -99.3081 266° West 403 464 32,000  Level Kansas City Center
10:40AM 38.6450 -99.4122 267° West 402 463 32,000  Level Denver Center
10:41AM 38.6378 -99.5714 267° West 402 463 32,000  Level Denver Center
10:42AM 38.6308 -99.7069 266° West 400 460 32,000  Level Denver Center
10:43AM 38.6225 -99.8631 266° West 396 456 32,000  Level Denver Center
10:44AM 38.6203 -99.9097 267° West 399 459 32,000  Level Kansas City Center
10:44AM 38.6164 -99.9992 267° West 400 460 32,000 300 Level Denver Center
10:45AM 38.6092 -100.1350 266° West 401 461 32,500 840 Climbing Denver Center
10:46AM 38.6006 -100.2917 266° West 398 458 33,800 960 Climbing Denver Center
10:47AM 38.5931 -100.4281 266° West 401 461 34,500 900 Climbing Denver Center
10:48AM 38.5836 -100.5867 266° West 403 464 35,700 720 Climbing Denver Center
10:49AM 38.5758 -100.7256 266° West 407 468 36,000 120 Climbing Denver Center
10:50AM 38.5667 -100.8892 266° West 412 474 36,000  Level Denver Center
10:51AM 38.5581 -101.0283 266° West 412 474 36,000  Level Denver Center
10:52AM 38.5475 -101.1936 265° West 417 480 36,000  Level Denver Center
10:53AM 38.5394 -101.3322 266° West 413 475 36,000  Level Denver Center
10:54AM 38.5300 -101.4692 265° West 408 470 36,000  Level Denver Center
10:55AM 38.5186 -101.6297 265° West 407 468 36,000  Level Denver Center
10:56AM 38.5100 -101.7631 265° West 398 458 36,000  Level Denver Center
10:57AM 38.5003 -101.9217 266° West 401 461 36,000  Level Denver Center
10:59AM 38.4911 -102.0575 265° West 403 464 36,000  Level Denver Center
11:00AM 38.4789 -102.2175 264° West 408 470 36,000  Level Denver Center
11:01AM 38.4697 -102.3544 265° West 406 467 36,000  Level Denver Center
11:02AM 38.4592 -102.5147 265° West 408 470 36,000  Level Denver Center
11:03AM 38.4481 -102.6517 264° West 406 467 36,000  Level Denver Center
11:04AM 38.4361 -102.8067 264° West 395 455 36,000  Level Denver Center
11:05AM 38.4261 -102.9375 264° West 387 445 36,000  Level Denver Center
11:06AM 38.4161 -103.0683 264° West 391 450 36,000  Level Denver Center
11:07AM 38.4047 -103.2167 264° West 380 437 36,000  Level Denver Center
11:08AM 38.3953 -103.3431 265° West 376 433 36,000  Level Denver Center
11:09AM 38.3822 -103.4875 263° West 374 430 36,000  Level Denver Center
11:10AM 38.3728 -103.6125 265° West 371 427 36,000  Level Denver Center
11:11AM 38.3608 -103.7578 264° West 370 426 36,000  Level Denver Center
11:12AM 38.3494 -103.8814 263° West 369 425 36,000  Level Denver Center
11:13AM 38.3381 -104.0258 264° West 369 425 36,000  Level Denver Center
11:14AM 38.3269 -104.1522 264° West 377 434 36,000  Level Denver Center
11:15AM 38.3139 -104.2983 264° West 374 430 36,000  Level Denver Center
11:16AM 38.3028 -104.4236 264° West 374 430 36,000  Level Denver Center
11:17AM 38.2900 -104.5719 264° West 379 436 36,000  Level Denver Center
11:18AM 38.2781 -104.6986 263° West 378 435 36,000  Level Denver Center
11:19AM 38.2644 -104.8472 263° West 381 438 36,000  Level Denver Center
11:20AM 38.2522 -104.9764 263° West 383 441 36,000  Level Denver Center
11:21AM 38.2378 -105.1261 263° West 384 442 36,000  Level Denver Center
11:22AM 38.2250 -105.2544 263° West 383 441 36,000  Level Denver Center
11:23AM 38.2108 -105.4075 263° West 390 449 36,000  Level Denver Center
11:24AM 38.1972 -105.5358 262° West 386 444 36,100  Climbing Denver Center
11:25AM 38.1822 -105.6864 263° West 385 443 36,000 -60 Descending Denver Center
11:26AM 38.1703 -105.8131 263° West 380 437 36,000  Level Denver Center
11:27AM 38.1569 -105.9378 262° West 371 427 36,000  Level Denver Center
11:28AM 38.1417 -106.0847 263° West 375 432 36,000  Level Denver Center
11:29AM 38.1264 -106.2244 262° West 378 435 36,000  Level Denver Center
11:31AM 38.1128 -106.3575 263° West 379 436 36,000  Level Denver Center
11:32AM 38.0983 -106.4944 262° West 390 449 36,000  Level Denver Center
11:33AM 38.0817 -106.6433 262° West 400 460 36,000 -300 Level Denver Center
11:34AM 38.0597 -106.7736 258° West 394 453 35,500 -780 Descending Denver Center
11:35AM 38.0328 -106.9206 257° West 385 443 34,400 -780 Descending Denver Center
11:36AM 38.0097 -107.0456 257° West 382 440 34,000 -240 Descending Denver Center
11:37AM 37.9847 -107.1864 257° West 378 435 34,000  Level Denver Center
11:38AM 37.9617 -107.3100 257° West 377 434 34,000  Level Denver Center
11:39AM 37.9344 -107.4553 257° West 379 436 34,000  Level Denver Center
11:40AM 37.9111 -107.5808 257° West 384 442 34,000  Level Denver Center
11:41AM 37.8833 -107.7264 256° West 383 441 34,000  Level Denver Center
11:42AM 37.8592 -107.8519 256° West 383 441 34,000  Level Denver Center
11:43AM 37.8308 -108.0006 256° West 389 448 34,000  Level Denver Center
11:44AM 37.8069 -108.1264 257° West 388 447 34,000  Level Denver Center
11:45AM 37.7781 -108.2750 256° West 389 448 34,000  Level Denver Center
11:46AM 37.7536 -108.3997 256° West 385 443 34,000  Level Denver Center
11:47AM 37.7294 -108.5272 257° West 388 447 34,000  Level Denver Center
11:48AM 37.6997 -108.6722 256° West 384 442 34,000  Level Denver Center
11:49AM 37.6744 -108.7981 256° West 386 444 34,000  Level Denver Center
11:50AM 37.6453 -108.9453 256° West 387 445 34,000  Level Denver Center
11:51AM 37.6200 -109.0758 256° West 396 456 34,000  Level Denver Center
11:52AM 37.5889 -109.2261 255° West 398 458 34,000  Level Denver Center
11:53AM 37.5625 -109.3553 256° West 399 459 34,000  Level Denver Center
11:54AM 37.5314 -109.5056 255° West 399 459 34,000  Level Denver Center
11:55AM 37.5044 -109.6347 255° West 401 461 34,000  Level Denver Center
11:56AM 37.4731 -109.7858 255° West 400 460 34,000  Level Denver Center
11:57AM 37.4458 -109.9164 255° West 404 465 34,000  Level Denver Center
11:58AM 37.4186 -110.0447 255° West 399 459 34,000  Level Denver Center
11:59AM 37.3847 -110.2017 255° West 400 460 34,000  Level Denver Center
12:00PM 37.3575 -110.3336 255° West 395 455 34,000  Level Denver Center
12:01PM 37.3292 -110.4667 255° West 393 452 34,000  Level Denver Center
12:02PM 37.3000 -110.5994 255° West 396 456 34,000  Level Denver Center
12:04PM 37.2714 -110.7325 255° West 397 457 34,000  Level Denver Center
12:05PM 37.2422 -110.8667 255° West 399 459 34,000  Level Denver Center
12:06PM 37.2122 -111.0006 254° West 399 459 34,000 -420 Level Denver Center
12:07PM 37.1772 -111.1594 255° West 396 456 33,200 -900 Descending Denver Center
12:08PM 37.1472 -111.2906 254° West 391 450 32,200 -600 Descending Denver Center
12:09PM 37.1194 -111.4233 255° West 394 453 32,000 -120 Descending Denver Center
12:10PM 37.0900 -111.5614 255° West 407 468 32,000  Level Denver Center
12:11PM 37.0606 -111.7006 255° West 411 473 32,000  Level Denver Center
12:12PM 37.0278 -111.8397 254° West 415 478 32,000  Level Denver Center
12:13PM 36.9953 -111.9797 254° West 417 480 32,000  Level Denver Center
12:14PM 36.9558 -112.1478 254° West 419 482 32,000  Level Denver Center
12:14PM 36.9372 -112.2322 255° West 413 475 32,000  Level Los Angeles Center
12:15PM 36.9044 -112.3717 254° West 416 479 32,000  Level Los Angeles Center
12:16PM 36.8706 -112.5136 253° West 421 484 32,000  Level Los Angeles Center
12:18PM 36.8381 -112.6553 254° West 423 487 32,000 -360 Level Los Angeles Center
12:19PM 36.8047 -112.7958 254° West 423 487 31,300 -840 Descending Los Angeles Center
12:20PM 36.7708 -112.9389 254° West 426 490 30,300 -900 Descending Los Angeles Center
12:21PM 36.7433 -113.0556 254° West 431 496 29,500 -1,080 Descending Los Angeles Center
12:22PM 36.6939 -113.2600 253° West 438 504 28,100 -1,200 Descending Los Angeles Center
12:23PM 36.6603 -113.4011 254° West 430 495 27,100 -1,020 Descending Los Angeles Center
12:24PM 36.6261 -113.5411 253° West 423 487 26,100 -1,080 Descending Los Angeles Center
12:25PM 36.5919 -113.6833 253° West 428 493 24,900 -1,800 Descending Los Angeles Center
12:26PM 36.5586 -113.8189 253° West 415 478 22,400 -2,400 Descending Los Angeles Center
12:27PM 36.5256 -113.9500 253° West 400 460 19,900 -2,640 Descending Los Angeles Center
12:28PM 36.4883 -114.1061 254° West 388 447 17,000 -2,580 Descending Los Angeles Center
12:29PM 36.4636 -114.2206 255° West 380 437 14,900 -2,100 Descending Los Angeles Center
12:30PM 36.4283 -114.3442 251° West 358 412 12,700 -1,320 Descending Los Angeles Center
12:31PM 36.4000 -114.4592 253° West 308 354 12,100 -780 Descending Los Angeles Center
12:32PM 36.3308 -114.5014 206° Southwest 306 352 11,100 -1,260 Descending Los Angeles Center
12:33PM 36.2439 -114.5256 193° South 306 352 9,600 -1,560 Descending Los Angeles Center
12:34PM 36.1708 -114.5664 204° Southwest 293 337 8,100 -840 Descending Los Angeles Center
12:35PM 36.1236 -114.6464 234° Southwest 282 325 8,000 -60 Descending Los Angeles Center
12:36PM 36.0756 -114.7319 235° Southwest 287 330 8,000  Level Los Angeles Center
12:37PM 36.0731 -114.8178 268° West 251 289 8,100 -660 Climbing Los Angeles Center
12:38PM 36.0731 -114.8978 270° West 229 264 6,700 -1,500 Descending Los Angeles Center
12:39PM 36.0739 -114.9800 271° West 217 250 5,000 -1,500 Descending Los Angeles Center
12:40PM 36.0728 -115.0442 269° West 174 200 3,500 -1,260 Descending Los Angeles Center
12:41PM 36.0736 -115.0972 271° West 156 180 2,500 -660 Descending Los Angeles Center
12:42PM 36.0739 -115.1503 270° West 155 178 2,100 -360 Descending Los Angeles Center
12:44PM 36.0667 -115.1500 219° Southwest  Level FlightAware Approximate